createdAt,value
2022-08-25T00:01:34.233Z,0.00
2022-08-25T00:07:05.925Z,1.00
2022-08-25T00:12:37.872Z,0.00
2022-08-25T00:20:31.142Z,0.00
2022-08-25T00:26:02.647Z,0.00
2022-08-25T00:31:37.688Z,0.00
2022-08-25T00:37:06.462Z,0.00
2022-08-25T00:42:38.311Z,0.00
2022-08-25T00:48:10.283Z,0.00
2022-08-25T00:53:41.837Z,1.00
2022-08-25T00:59:13.784Z,0.00
2022-08-25T01:04:48.714Z,0.00
2022-08-25T01:10:17.429Z,0.00
2022-08-25T01:15:48.934Z,1.00
2022-08-25T01:21:20.406Z,1.00
2022-08-25T01:26:52.252Z,1.00
2022-08-25T01:32:24.041Z,0.00
2022-08-25T01:37:55.698Z,1.00
2022-08-25T01:43:27.126Z,0.00
2022-08-25T01:49:00.417Z,0.00
2022-08-25T01:54:30.859Z,0.00
2022-08-25T02:00:02.503Z,1.00
2022-08-25T02:05:34.524Z,0.00
2022-08-25T02:11:06.356Z,1.00
2022-08-25T02:16:38.224Z,0.00
2022-08-25T02:22:10.078Z,0.00
2022-08-25T02:27:41.792Z,0.00
2022-08-25T02:33:13.544Z,1.00
2022-08-25T02:38:45.395Z,0.00
2022-08-25T02:44:16.935Z,0.00
2022-08-25T02:49:48.311Z,1.00
2022-08-25T02:55:19.709Z,0.00
2022-08-25T03:00:51.756Z,0.00
2022-08-25T03:06:23.679Z,1.00
2022-08-25T03:11:54.801Z,0.00
2022-08-25T03:17:26.576Z,1.00
2022-08-25T03:22:58.530Z,1.00
2022-08-25T03:28:30.304Z,0.00
2022-08-25T03:34:02.068Z,2.00
2022-08-25T03:39:34.061Z,2.00
2022-08-25T03:45:05.795Z,4.00
2022-08-25T03:50:37.124Z,13.00
2022-08-25T03:56:08.726Z,37.00
2022-08-25T04:01:40.638Z,102.00
2022-08-25T04:12:43.990Z,371.00
2022-08-25T04:18:15.642Z,568.00
2022-08-25T04:23:47.226Z,891.00
2022-08-25T04:29:20.093Z,1479.00
2022-08-25T04:34:51.856Z,2299.00
2022-08-25T04:40:23.855Z,2281.00
2022-08-25T04:45:55.193Z,3797.00
2022-08-25T04:51:27.181Z,5364.00
2022-08-25T04:56:59.047Z,6117.00
2022-08-25T05:02:30.728Z,7145.00
2022-08-25T05:08:02.693Z,8048.00
2022-08-25T05:13:34.178Z,28257.00
2022-08-25T05:19:06.055Z,37889.00
2022-08-25T05:24:37.866Z,37889.00
2022-08-25T05:30:09.603Z,37889.00
2022-08-25T05:35:41.128Z,37889.00
2022-08-25T05:41:12.709Z,37889.00
2022-08-25T05:46:44.496Z,37889.00
2022-08-25T05:52:18.215Z,37889.00
2022-08-25T05:57:48.226Z,37889.00
2022-08-25T06:03:19.906Z,37889.00
2022-08-25T06:08:51.895Z,37889.00
2022-08-25T06:14:23.785Z,37889.00
2022-08-25T06:19:55.452Z,37889.00
2022-08-25T06:25:27.356Z,37889.00
2022-08-25T06:30:58.944Z,37889.00
2022-08-25T06:36:30.907Z,37889.00
2022-08-25T06:42:02.766Z,37889.00
2022-08-25T06:47:34.657Z,37889.00
2022-08-25T06:53:06.270Z,37889.00
2022-08-25T06:58:37.766Z,37889.00
2022-08-25T07:04:13.070Z,37889.00
2022-08-25T07:09:41.387Z,37889.00
2022-08-25T07:15:20.905Z,37889.00
2022-08-25T07:20:44.722Z,37889.00
2022-08-25T07:26:36.225Z,37889.00
2022-08-25T07:31:48.607Z,37889.00
2022-08-25T07:37:45.506Z,37889.00
2022-08-25T07:42:52.133Z,37889.00
2022-08-25T07:48:23.965Z,37889.00
2022-08-25T07:53:55.676Z,37889.00
2022-08-25T07:59:27.507Z,37889.00
2022-08-25T08:04:59.443Z,37889.00
2022-08-25T08:11:00.615Z,37889.00
2022-08-25T08:16:03.129Z,37889.00
2022-08-25T08:21:34.617Z,37889.00
2022-08-25T08:27:06.335Z,37889.00
2022-08-25T08:33:06.399Z,37889.00
2022-08-25T08:38:16.159Z,37889.00
2022-08-25T08:43:41.933Z,37889.00
2022-08-25T08:49:13.971Z,37889.00
2022-08-25T08:54:46.217Z,37889.00
2022-08-25T09:00:18.001Z,37889.00
2022-08-25T09:11:21.464Z,19747.00
2022-08-25T09:16:53.389Z,18025.00
2022-08-25T09:22:35.519Z,18118.00
2022-08-25T09:27:57.071Z,18541.00
2022-08-25T09:33:28.830Z,18140.00
2022-08-25T09:39:00.473Z,18595.00
2022-08-25T09:44:32.210Z,18943.00
2022-08-25T09:50:04.628Z,19401.00
2022-08-25T09:55:35.826Z,19164.00
2022-08-25T10:01:07.561Z,18945.00
2022-08-25T10:06:39.586Z,18946.00
2022-08-25T10:12:11.430Z,19393.00
2022-08-25T10:17:42.889Z,18945.00
2022-08-25T10:23:14.875Z,18946.00
2022-08-25T10:28:46.656Z,19034.00
2022-08-25T10:34:18.549Z,17499.00
2022-08-25T10:39:55.363Z,17743.00
2022-08-25T10:45:22.174Z,19987.00
2022-08-25T11:01:57.228Z,18708.00
2022-08-25T11:07:31.530Z,17007.00
2022-08-25T11:24:06.718Z,24290.00
2022-08-25T11:29:39.450Z,21860.00
2022-08-25T11:35:10.166Z,24505.00
2022-08-25T11:40:41.721Z,24437.00
2022-08-25T11:46:14.000Z,23080.00
2022-08-25T11:51:45.454Z,20996.00
2022-08-25T11:57:17.703Z,23787.00
2022-08-25T12:13:53.544Z,30204.00
2022-08-25T12:19:25.418Z,27627.00
2022-08-25T12:24:57.207Z,24645.00
2022-08-25T12:30:28.737Z,25442.00
2022-08-25T12:36:00.475Z,26133.00
2022-08-25T12:41:33.671Z,24938.00
2022-08-25T12:47:05.981Z,19874.00
2022-08-25T12:52:37.754Z,17573.00
2022-08-25T12:58:10.720Z,15865.00
2022-08-25T13:00:33.629Z,15107.00
2022-08-25T13:06:05.406Z,13876.00
2022-08-25T13:11:37.352Z,12995.00
2022-08-25T13:17:09.683Z,12730.00
2022-08-25T13:22:40.660Z,12942.00
2022-08-25T13:28:12.464Z,12409.00
2022-08-25T13:33:44.353Z,13534.00
2022-08-25T13:39:17.041Z,12491.00
2022-08-25T13:50:20.725Z,19634.00
2022-08-25T13:55:53.381Z,16807.00
2022-08-25T14:01:48.994Z,12904.00
2022-08-25T14:06:56.894Z,11472.00
2022-08-25T14:18:00.795Z,19389.00
2022-08-25T14:23:32.917Z,23919.00
2022-08-25T14:29:04.475Z,23054.00
2022-08-25T14:34:36.494Z,18948.00
2022-08-25T14:40:08.254Z,18629.00
2022-08-25T14:45:40.090Z,18945.00
2022-08-25T14:51:11.384Z,17446.00
2022-08-25T14:56:43.098Z,18943.00
2022-08-25T15:02:14.763Z,13296.00
2022-08-25T15:07:46.519Z,10969.00
2022-08-25T15:18:49.274Z,10805.00
2022-08-25T15:24:21.128Z,12223.00
2022-08-25T15:29:52.998Z,11531.00
2022-08-25T15:35:27.729Z,10919.00
2022-08-25T15:40:56.453Z,13969.00
2022-08-25T15:46:28.395Z,10525.00
2022-08-25T15:51:59.752Z,10243.00
2022-08-25T15:57:31.587Z,10855.00
2022-08-25T16:08:35.453Z,12950.00
2022-08-25T16:14:07.063Z,12270.00
2022-08-25T16:19:39.319Z,12938.00
2022-08-25T16:25:10.731Z,12889.00
2022-08-25T16:30:42.497Z,11186.00
2022-08-25T16:36:14.237Z,9742.00
2022-08-25T16:41:46.007Z,7746.00
2022-08-25T16:47:20.328Z,7013.00
2022-08-25T16:52:48.972Z,6237.00
2022-08-25T16:58:20.343Z,5332.00
2022-08-25T17:03:52.327Z,4523.00
2022-08-25T17:14:55.776Z,3332.00
2022-08-25T17:20:27.957Z,3388.00
2022-08-25T17:25:59.282Z,3066.00
2022-08-25T17:31:30.831Z,2569.00
2022-08-25T17:37:02.226Z,2329.00
2022-08-25T17:42:36.369Z,2077.00
2022-08-25T17:48:08.363Z,1961.00
2022-08-25T17:53:39.803Z,1620.00
2022-08-25T17:59:11.098Z,1102.00
2022-08-25T18:04:43.073Z,712.00
2022-08-25T18:10:15.018Z,509.00
2022-08-25T18:15:46.892Z,275.00
2022-08-25T18:26:50.179Z,36.00
2022-08-25T18:32:22.125Z,11.00
2022-08-25T18:37:53.659Z,4.00
2022-08-25T18:43:25.452Z,3.00
2022-08-25T18:48:57.244Z,1.00
2022-08-25T18:54:28.951Z,0.00
2022-08-25T19:00:00.757Z,1.00
2022-08-25T19:05:32.014Z,1.00
2022-08-25T19:11:03.331Z,1.00
2022-08-25T19:16:35.183Z,0.00
2022-08-25T19:22:13.424Z,1.00
2022-08-25T19:27:38.464Z,1.00
2022-08-25T19:33:11.703Z,0.00
2022-08-25T19:38:41.968Z,1.00
2022-08-25T19:44:13.663Z,1.00
2022-08-25T19:49:45.562Z,0.00
2022-08-25T19:55:17.650Z,0.00
2022-08-25T20:00:51.282Z,0.00
2022-08-25T20:06:21.350Z,0.00
2022-08-25T20:11:55.023Z,0.00
2022-08-25T20:17:28.646Z,0.00
2022-08-25T20:22:58.889Z,0.00
2022-08-25T20:28:30.637Z,0.00
2022-08-25T20:34:03.074Z,0.00
2022-08-25T20:45:08.293Z,1.00
2022-08-25T20:50:40.166Z,1.00
2022-08-25T20:56:11.684Z,1.00
2022-08-25T21:01:43.563Z,1.00
2022-08-25T21:12:47.323Z,0.00
2022-08-25T21:23:50.878Z,0.00
2022-08-25T21:29:22.578Z,0.00
2022-08-25T21:34:54.359Z,0.00
2022-08-25T21:40:26.258Z,0.00
2022-08-25T21:45:57.675Z,0.00
2022-08-25T21:51:28.998Z,1.00
2022-08-25T22:10:24.992Z,1.00
2022-08-25T22:15:56.460Z,0.00
2022-08-25T22:21:27.683Z,0.00
2022-08-25T22:26:59.508Z,1.00
2022-08-25T22:32:30.980Z,0.00
2022-08-25T22:38:02.738Z,0.00
2022-08-25T22:43:34.875Z,0.00
2022-08-25T22:49:06.369Z,0.00
2022-08-25T22:54:38.455Z,0.00
2022-08-25T23:00:10.142Z,0.00
2022-08-25T23:05:42.118Z,0.00
2022-08-25T23:11:13.839Z,0.00
2022-08-25T23:16:45.754Z,0.00
2022-08-25T23:22:17.158Z,1.00
2022-08-25T23:27:48.805Z,0.00
2022-08-25T23:33:20.348Z,0.00
2022-08-25T23:38:52.370Z,0.00
2022-08-25T23:44:24.474Z,0.00
2022-08-25T23:49:55.955Z,0.00
2022-08-25T23:55:33.038Z,0.00
